SBI4119 URWW-URMM
Flight info
| Callsign | SBI4119 |
|---|---|
| Flight time | 0h 46m |
| Altitude | 34000 |
| Route | URWW TONGI R807 NIRGA A835 DEPSO URMM |
| Aircraft | B738/M-SBDFGM3RWXY/LB1 |
Departure
| Time | 2026-05-07 18:29 |
|---|---|
| Airport | Volgograd International Airport (URWW) |
Arrival
| Time | 2026-05-07 19:15 |
|---|---|
| Airport | Mineralnye Vody Airport (URMM) |
| Time | Latitude | Longitude | Altitude | Speed | Heading |
|---|---|---|---|---|---|
| 2026-05-07 17:58 | 48.79019 | 44.35280 | 472 ft | 0 kts | 339° |
| 2026-05-07 18:19 | 48.79017 | 44.35281 | 472 ft | 1 kts | 340° |
| 2026-05-07 18:19 | 48.79005 | 44.35288 | 472 ft | 0 kts | 339° |
| 2026-05-07 18:20 | 48.78994 | 44.35295 | 472 ft | 2 kts | 321° |
| 2026-05-07 18:20 | 48.78984 | 44.35312 | 472 ft | 2 kts | 299° |
| 2026-05-07 18:20 | 48.78979 | 44.35333 | 472 ft | 2 kts | 276° |
| 2026-05-07 18:20 | 48.78980 | 44.35355 | 471 ft | 1 kts | 253° |
| 2026-05-07 18:21 | 48.78982 | 44.35365 | 471 ft | 1 kts | 246° |
| 2026-05-07 18:21 | 48.78983 | 44.35368 | 471 ft | 0 kts | 248° |
| 2026-05-07 18:23 | 48.78980 | 44.35357 | 471 ft | 3 kts | 248° |
| 2026-05-07 18:23 | 48.78972 | 44.35325 | 472 ft | 3 kts | 249° |
| 2026-05-07 18:24 | 48.78959 | 44.35274 | 472 ft | 6 kts | 249° |
| 2026-05-07 18:24 | 48.78939 | 44.35195 | 472 ft | 9 kts | 250° |
| 2026-05-07 18:24 | 48.78916 | 44.35119 | 471 ft | 8 kts | 223° |
| 2026-05-07 18:24 | 48.78843 | 44.35129 | 470 ft | 13 kts | 159° |
| 2026-05-07 18:25 | 48.78749 | 44.35177 | 469 ft | 10 kts | 162° |
| 2026-05-07 18:25 | 48.78698 | 44.35202 | 469 ft | 0 kts | 161° |
| 2026-05-07 18:26 | 48.78693 | 44.35205 | 469 ft | 2 kts | 161° |
| 2026-05-07 18:27 | 48.78663 | 44.35220 | 469 ft | 6 kts | 161° |
| 2026-05-07 18:27 | 48.78612 | 44.35245 | 469 ft | 9 kts | 161° |
| 2026-05-07 18:27 | 48.78566 | 44.35242 | 468 ft | 7 kts | 220° |
| 2026-05-07 18:27 | 48.78549 | 44.35204 | 468 ft | 0 kts | 240° |
| 2026-05-07 18:28 | 48.78514 | 44.35100 | 466 ft | 36 kts | 246° |
| 2026-05-07 18:28 | 48.78274 | 44.34341 | 454 ft | 120 kts | 244° |
| 2026-05-07 18:28 | 48.77809 | 44.32894 | 572 ft | 173 kts | 244° |
| 2026-05-07 18:29 | 48.77272 | 44.31332 | 1463 ft | 172 kts | 247° |
| 2026-05-07 18:29 | 48.76839 | 44.29616 | 1754 ft | 185 kts | 249° |
| 2026-05-07 18:29 | 48.76259 | 44.27821 | 2056 ft | 198 kts | 244° |
| 2026-05-07 18:29 | 48.75590 | 44.25907 | 2315 ft | 213 kts | 245° |
| 2026-05-07 18:30 | 48.74900 | 44.23821 | 2561 ft | 228 kts | 246° |
| 2026-05-07 18:30 | 48.74030 | 44.21713 | 2719 ft | 251 kts | 225° |
| 2026-05-07 18:30 | 48.72479 | 44.20417 | 3112 ft | 265 kts | 192° |
| 2026-05-07 18:30 | 48.70598 | 44.20475 | 3412 ft | 279 kts | 162° |
| 2026-05-07 18:31 | 48.68809 | 44.21593 | 4263 ft | 279 kts | 152° |
| 2026-05-07 18:31 | 48.67088 | 44.22847 | 5215 ft | 282 kts | 152° |
| 2026-05-07 18:31 | 48.65340 | 44.24106 | 6219 ft | 282 kts | 152° |
| 2026-05-07 18:31 | 48.63553 | 44.25375 | 7094 ft | 287 kts | 152° |
| 2026-05-07 18:32 | 48.61742 | 44.26655 | 7929 ft | 292 kts | 152° |
| 2026-05-07 18:32 | 48.59891 | 44.27962 | 8757 ft | 297 kts | 152° |
| 2026-05-07 18:32 | 48.57976 | 44.29313 | 9639 ft | 301 kts | 151° |
| 2026-05-07 18:32 | 48.56067 | 44.30646 | 10441 ft | 306 kts | 153° |
| 2026-05-07 18:33 | 48.54011 | 44.31652 | 11262 ft | 313 kts | 166° |
| 2026-05-07 18:33 | 48.51778 | 44.32001 | 11753 ft | 330 kts | 176° |
| 2026-05-07 18:33 | 48.49445 | 44.32027 | 12223 ft | 346 kts | 178° |
| 2026-05-07 18:33 | 48.46980 | 44.31989 | 12690 ft | 361 kts | 178° |
| 2026-05-07 18:34 | 48.44433 | 44.31987 | 13142 ft | 375 kts | 178° |
| 2026-05-07 18:34 | 48.41768 | 44.32041 | 13602 ft | 389 kts | 177° |
| 2026-05-07 18:34 | 48.39016 | 44.32136 | 14026 ft | 403 kts | 176° |
| 2026-05-07 18:34 | 48.36234 | 44.32249 | 14738 ft | 408 kts | 176° |
| 2026-05-07 18:35 | 48.33388 | 44.32369 | 15492 ft | 411 kts | 176° |
| 2026-05-07 18:35 | 48.30507 | 44.32489 | 16183 ft | 416 kts | 176° |
| 2026-05-07 18:35 | 48.27642 | 44.32606 | 16932 ft | 418 kts | 176° |
| 2026-05-07 18:35 | 48.24706 | 44.32728 | 17558 ft | 424 kts | 176° |
| 2026-05-07 18:36 | 48.21768 | 44.32851 | 18305 ft | 426 kts | 176° |
| 2026-05-07 18:36 | 48.18799 | 44.32974 | 18869 ft | 433 kts | 176° |
| 2026-05-07 18:36 | 48.15776 | 44.33099 | 19471 ft | 438 kts | 176° |
| 2026-05-07 18:36 | 48.12720 | 44.33223 | 20126 ft | 441 kts | 177° |
| 2026-05-07 18:37 | 48.09643 | 44.33347 | 20748 ft | 445 kts | 177° |
| 2026-05-07 18:37 | 48.06569 | 44.33471 | 21315 ft | 450 kts | 177° |
| 2026-05-07 18:37 | 48.03412 | 44.33599 | 21869 ft | 454 kts | 177° |
| 2026-05-07 18:37 | 48.00267 | 44.33728 | 22425 ft | 458 kts | 177° |
| 2026-05-07 18:38 | 47.97081 | 44.33830 | 22987 ft | 462 kts | 179° |
| 2026-05-07 18:38 | 47.93840 | 44.33730 | 23466 ft | 468 kts | 183° |
| 2026-05-07 18:38 | 47.90640 | 44.33202 | 24054 ft | 470 kts | 188° |
| 2026-05-07 18:38 | 47.87382 | 44.32304 | 24543 ft | 474 kts | 192° |
| 2026-05-07 18:39 | 47.84192 | 44.31223 | 25056 ft | 478 kts | 193° |
| 2026-05-07 18:39 | 47.80957 | 44.30028 | 25592 ft | 480 kts | 194° |
| 2026-05-07 18:39 | 47.77706 | 44.28793 | 26065 ft | 484 kts | 194° |
| 2026-05-07 18:39 | 47.74435 | 44.27549 | 26549 ft | 487 kts | 194° |
| 2026-05-07 18:40 | 47.71153 | 44.26313 | 26993 ft | 491 kts | 194° |
| 2026-05-07 18:40 | 47.67828 | 44.25080 | 27502 ft | 493 kts | 194° |
| 2026-05-07 18:40 | 47.64499 | 44.23859 | 27901 ft | 497 kts | 194° |
| 2026-05-07 18:40 | 47.61132 | 44.22636 | 28387 ft | 499 kts | 194° |
| 2026-05-07 18:41 | 47.57827 | 44.21444 | 29142 ft | 494 kts | 194° |
| 2026-05-07 18:41 | 47.54473 | 44.20241 | 29809 ft | 492 kts | 194° |
| 2026-05-07 18:41 | 47.51183 | 44.19066 | 30329 ft | 492 kts | 194° |
| 2026-05-07 18:41 | 47.47868 | 44.17886 | 30774 ft | 493 kts | 194° |
| 2026-05-07 18:42 | 47.44544 | 44.16706 | 31324 ft | 492 kts | 194° |
| 2026-05-07 18:42 | 47.41204 | 44.15521 | 32002 ft | 488 kts | 194° |
| 2026-05-07 18:42 | 47.37916 | 44.14355 | 32462 ft | 488 kts | 194° |
| 2026-05-07 18:42 | 47.34638 | 44.13195 | 32871 ft | 489 kts | 194° |
| 2026-05-07 18:43 | 47.31341 | 44.12029 | 33410 ft | 486 kts | 194° |
| 2026-05-07 18:43 | 47.28032 | 44.10860 | 33851 ft | 486 kts | 194° |
| 2026-05-07 18:43 | 47.24750 | 44.09701 | 34005 ft | 490 kts | 193° |
| 2026-05-07 18:44 | 47.18129 | 44.07370 | 34012 ft | 488 kts | 194° |
| 2026-05-07 18:44 | 47.11605 | 44.05080 | 34007 ft | 484 kts | 194° |
| 2026-05-07 18:45 | 47.05009 | 44.02770 | 34003 ft | 488 kts | 193° |
| 2026-05-07 18:45 | 46.98430 | 44.00475 | 34013 ft | 487 kts | 193° |
| 2026-05-07 18:46 | 46.91856 | 43.98203 | 34015 ft | 487 kts | 193° |
| 2026-05-07 18:46 | 46.85246 | 43.95929 | 34020 ft | 488 kts | 193° |
| 2026-05-07 18:47 | 46.78663 | 43.93671 | 34019 ft | 486 kts | 193° |
| 2026-05-07 18:47 | 46.72057 | 43.91409 | 34015 ft | 488 kts | 193° |
| 2026-05-07 18:48 | 46.65468 | 43.89157 | 34026 ft | 488 kts | 193° |
| 2026-05-07 18:48 | 46.58884 | 43.86913 | 34026 ft | 487 kts | 193° |
| 2026-05-07 18:49 | 46.52294 | 43.84667 | 34025 ft | 489 kts | 193° |
| 2026-05-07 18:49 | 46.45662 | 43.82404 | 34029 ft | 488 kts | 193° |
| 2026-05-07 18:50 | 46.39099 | 43.80178 | 34028 ft | 488 kts | 193° |
| 2026-05-07 18:50 | 46.32461 | 43.77935 | 34038 ft | 490 kts | 192° |
| 2026-05-07 18:51 | 46.25799 | 43.75696 | 34034 ft | 489 kts | 192° |
| 2026-05-07 18:51 | 46.19207 | 43.73481 | 34032 ft | 489 kts | 192° |
| 2026-05-07 18:52 | 46.12568 | 43.71258 | 34031 ft | 491 kts | 192° |
| 2026-05-07 18:52 | 46.05880 | 43.69029 | 34036 ft | 491 kts | 192° |
| 2026-05-07 18:53 | 45.99247 | 43.66827 | 34040 ft | 492 kts | 191° |
| 2026-05-07 18:53 | 45.92528 | 43.64815 | 34038 ft | 492 kts | 189° |
| 2026-05-07 18:54 | 45.85801 | 43.62959 | 34047 ft | 491 kts | 189° |
| 2026-05-07 18:54 | 45.79052 | 43.61108 | 34043 ft | 493 kts | 189° |
| 2026-05-07 18:55 | 45.72315 | 43.59233 | 34057 ft | 491 kts | 189° |
| 2026-05-07 18:55 | 45.65614 | 43.57367 | 34040 ft | 493 kts | 189° |
| 2026-05-07 18:56 | 45.58917 | 43.55507 | 34051 ft | 492 kts | 188° |
| 2026-05-07 18:56 | 45.52206 | 43.53643 | 34074 ft | 492 kts | 188° |
| 2026-05-07 18:57 | 45.45497 | 43.51773 | 34065 ft | 491 kts | 188° |
| 2026-05-07 18:57 | 45.38821 | 43.49918 | 34067 ft | 492 kts | 188° |
| 2026-05-07 18:58 | 45.32072 | 43.48049 | 34083 ft | 492 kts | 188° |
| 2026-05-07 18:58 | 45.25396 | 43.46185 | 33968 ft | 489 kts | 188° |
| 2026-05-07 18:58 | 45.22059 | 43.45270 | 32934 ft | 491 kts | 188° |
| 2026-05-07 18:59 | 45.18736 | 43.44348 | 32003 ft | 487 kts | 188° |
| 2026-05-07 18:59 | 45.15422 | 43.43434 | 30806 ft | 490 kts | 188° |
| 2026-05-07 18:59 | 45.12077 | 43.42529 | 29354 ft | 495 kts | 188° |
| 2026-05-07 18:59 | 45.08703 | 43.41712 | 27848 ft | 500 kts | 185° |
| 2026-05-07 19:00 | 45.05333 | 43.41195 | 27076 ft | 486 kts | 181° |
| 2026-05-07 19:00 | 45.01969 | 43.40866 | 25958 ft | 481 kts | 180° |
| 2026-05-07 19:00 | 44.98665 | 43.40659 | 25209 ft | 469 kts | 179° |
| 2026-05-07 19:00 | 44.95478 | 43.40498 | 24298 ft | 462 kts | 178° |
| 2026-05-07 19:01 | 44.92274 | 43.40345 | 23330 ft | 456 kts | 178° |
| 2026-05-07 19:01 | 44.89170 | 43.40192 | 22398 ft | 450 kts | 179° |
| 2026-05-07 19:01 | 44.86034 | 43.40026 | 21443 ft | 444 kts | 180° |
| 2026-05-07 19:01 | 44.83000 | 43.39858 | 20500 ft | 437 kts | 180° |
| 2026-05-07 19:02 | 44.79987 | 43.39682 | 19559 ft | 431 kts | 181° |
| 2026-05-07 19:02 | 44.77013 | 43.39504 | 18620 ft | 424 kts | 181° |
| 2026-05-07 19:02 | 44.74121 | 43.39326 | 17694 ft | 418 kts | 182° |
| 2026-05-07 19:02 | 44.71222 | 43.39147 | 16755 ft | 412 kts | 182° |
| 2026-05-07 19:03 | 44.68419 | 43.38974 | 15835 ft | 406 kts | 182° |
| 2026-05-07 19:03 | 44.65581 | 43.38797 | 14891 ft | 401 kts | 182° |
| 2026-05-07 19:03 | 44.62810 | 43.38621 | 13960 ft | 396 kts | 182° |
| 2026-05-07 19:03 | 44.60026 | 43.38443 | 13014 ft | 391 kts | 183° |
| 2026-05-07 19:04 | 44.57323 | 43.38269 | 12095 ft | 387 kts | 183° |
| 2026-05-07 19:04 | 44.54697 | 43.38100 | 11186 ft | 382 kts | 183° |
| 2026-05-07 19:04 | 44.52073 | 43.38106 | 10432 ft | 373 kts | 176° |
| 2026-05-07 19:04 | 44.49527 | 43.38652 | 9875 ft | 363 kts | 167° |
| 2026-05-07 19:05 | 44.47111 | 43.39578 | 9333 ft | 361 kts | 163° |
| 2026-05-07 19:05 | 44.44742 | 43.40660 | 8791 ft | 362 kts | 162° |
| 2026-05-07 19:05 | 44.42375 | 43.41765 | 8357 ft | 352 kts | 163° |
| 2026-05-07 19:05 | 44.40103 | 43.42796 | 8091 ft | 332 kts | 163° |
| 2026-05-07 19:06 | 44.37969 | 43.43730 | 7843 ft | 314 kts | 164° |
| 2026-05-07 19:06 | 44.33986 | 43.45404 | 7332 ft | 285 kts | 165° |
| 2026-05-07 19:06 | 44.32130 | 43.46169 | 6981 ft | 277 kts | 165° |
| 2026-05-07 19:07 | 44.30285 | 43.46865 | 6634 ft | 269 kts | 172° |
| 2026-05-07 19:07 | 44.28469 | 43.47007 | 6317 ft | 257 kts | 194° |
| 2026-05-07 19:07 | 44.26867 | 43.46109 | 6001 ft | 250 kts | 216° |
| 2026-05-07 19:07 | 44.25429 | 43.44765 | 5680 ft | 248 kts | 218° |
| 2026-05-07 19:08 | 44.24018 | 43.43426 | 5532 ft | 239 kts | 217° |
| 2026-05-07 19:08 | 44.22667 | 43.42199 | 5462 ft | 229 kts | 216° |
| 2026-05-07 19:08 | 44.21329 | 43.41013 | 5423 ft | 223 kts | 216° |
| 2026-05-07 19:08 | 44.20057 | 43.39893 | 5302 ft | 213 kts | 216° |
| 2026-05-07 19:09 | 44.18821 | 43.38801 | 5054 ft | 210 kts | 217° |
| 2026-05-07 19:09 | 44.17599 | 43.37721 | 4822 ft | 206 kts | 217° |
| 2026-05-07 19:09 | 44.16384 | 43.36649 | 4596 ft | 204 kts | 217° |
| 2026-05-07 19:09 | 44.15196 | 43.35600 | 4382 ft | 202 kts | 217° |
| 2026-05-07 19:10 | 44.14028 | 43.34531 | 4188 ft | 200 kts | 221° |
| 2026-05-07 19:10 | 44.13118 | 43.33111 | 4054 ft | 194 kts | 249° |
| 2026-05-07 19:10 | 44.12867 | 43.31345 | 3974 ft | 178 kts | 280° |
| 2026-05-07 19:10 | 44.13235 | 43.29791 | 3975 ft | 168 kts | 295° |
| 2026-05-07 19:11 | 44.13748 | 43.28310 | 3979 ft | 175 kts | 297° |
| 2026-05-07 19:11 | 44.14352 | 43.26831 | 3978 ft | 177 kts | 305° |
| 2026-05-07 19:11 | 44.15104 | 43.25456 | 3980 ft | 177 kts | 305° |
| 2026-05-07 19:11 | 44.15767 | 43.24022 | 3978 ft | 176 kts | 302° |
| 2026-05-07 19:12 | 44.16403 | 43.22565 | 3935 ft | 178 kts | 301° |
| 2026-05-07 19:12 | 44.17020 | 43.21075 | 3661 ft | 176 kts | 300° |
| 2026-05-07 19:12 | 44.17633 | 43.19618 | 3200 ft | 173 kts | 302° |
| 2026-05-07 19:12 | 44.18245 | 43.18232 | 2802 ft | 165 kts | 302° |
| 2026-05-07 19:13 | 44.18838 | 43.16890 | 2346 ft | 160 kts | 301° |
| 2026-05-07 19:13 | 44.19411 | 43.15602 | 1972 ft | 151 kts | 300° |
| 2026-05-07 19:13 | 44.19946 | 43.14402 | 1724 ft | 141 kts | 300° |
| 2026-05-07 19:13 | 44.20459 | 43.13249 | 1573 ft | 144 kts | 300° |
| 2026-05-07 19:14 | 44.20986 | 43.12039 | 1394 ft | 150 kts | 298° |
| 2026-05-07 19:14 | 44.21529 | 43.10791 | 1171 ft | 148 kts | 301° |
| 2026-05-07 19:14 | 44.22059 | 43.09657 | 1055 ft | 128 kts | 300° |
| 2026-05-07 19:14 | 44.22426 | 43.08831 | 1055 ft | 67 kts | 302° |
| 2026-05-07 19:15 | 44.22564 | 43.08521 | 1055 ft | 24 kts | 302° |
| 2026-05-07 19:15 | 44.22656 | 43.08330 | 1055 ft | 22 kts | 304° |
| 2026-05-07 19:15 | 44.22742 | 43.08145 | 1055 ft | 23 kts | 303° |
| 2026-05-07 19:15 | 44.22831 | 43.07949 | 1055 ft | 24 kts | 302° |
| 2026-05-07 19:16 | 44.22926 | 43.07741 | 1055 ft | 26 kts | 303° |
| 2026-05-07 19:16 | 44.22996 | 43.07550 | 1055 ft | 19 kts | 284° |
| 2026-05-07 19:16 | 44.23013 | 43.07407 | 1055 ft | 9 kts | 274° |
| 2026-05-07 19:16 | 44.23016 | 43.07310 | 1055 ft | 11 kts | 269° |
| 2026-05-07 19:17 | 44.23016 | 43.07291 | 1055 ft | 0 kts | 271° |